81IL weather

Illinois Valley Parachute Club Airport
Minier, Illinois, United States

Public forecast

Using degrees Fahrenheit for public forecast. Weather courtesy of forecast.io.

Closest aviation weather report (METAR) to Illinois Valley Parachute Club Airport

Closest report is Logan County Airport, 16.6 nm (30.7 km) S. Retrieved 2019/12/08 02:35 UTC (11 minutes ago):

KAAA 080235Z AUTO 16004KT 10SM CLR 00/M02 A3021 RMK AO2 T00001016

Closest aviation forecast (TAF) to Illinois Valley Parachute Club Airport

Closest forecast is Central Illinois Regional Airport at Bloomington-Normal, 20.3 nm (37.6 km) E. Retrieved 2019-12-08 00:22 UTC (2 hours ago):

TAF KBMI 072320Z 0800/0824 16010KT P6SM FEW250 FM080900 19013KT P6SM BKN025 FM081200 20013KT P6SM BKN015 FM081500 20013G23KT P6SM OVC015 FM082300 18011KT P6SM BKN025